createdAt,value
2023-03-21T00:00:01.394Z,88.0
2023-03-21T00:10:18.221Z,76.5
2023-03-21T00:15:01.447Z,74.1
2023-03-21T00:20:06.416Z,73.8
2023-03-21T00:25:01.450Z,74.8
2023-03-21T00:30:01.431Z,73.2
2023-03-21T00:50:01.692Z,58.2
2023-03-21T00:55:01.652Z,64.8
2023-03-21T01:00:01.522Z,67.5
2023-03-21T01:05:01.579Z,69.5
2023-03-21T01:10:01.533Z,73.2
2023-03-21T01:15:01.635Z,80.5
2023-03-21T01:20:06.575Z,84.4
2023-03-21T01:30:02.546Z,93.2
2023-03-21T01:35:01.621Z,94.0
2023-03-21T01:40:06.491Z,91.0
2023-03-21T01:45:02.652Z,88.0
2023-03-21T01:50:01.623Z,86.0
2023-03-21T01:55:01.651Z,81.0
2023-03-21T02:00:01.725Z,75.5
2023-03-21T02:05:01.534Z,59.7
2023-03-21T02:10:01.506Z,58.5
2023-03-21T02:15:01.550Z,53.1
2023-03-21T02:20:02.563Z,56.8
2023-03-21T02:40:01.679Z,65.8
2023-03-21T03:00:16.915Z,67.0
2023-03-21T03:05:11.766Z,64.9
2023-03-21T03:10:01.054Z,64.3
2023-03-21T03:15:04.572Z,65.1
2023-03-21T03:20:16.759Z,66.4
2023-03-21T03:40:02.602Z,73.6
2023-03-21T03:45:01.550Z,72.1
2023-03-21T03:50:01.390Z,69.5
2023-03-21T03:55:01.673Z,67.7
2023-03-21T04:00:01.533Z,64.9
2023-03-21T04:05:01.602Z,63.4
2023-03-21T04:10:01.461Z,62.7
2023-03-21T04:15:11.254Z,63.9
2023-03-21T04:20:18.651Z,64.9
2023-03-21T04:25:01.722Z,67.3
2023-03-21T04:30:01.709Z,66.6
2023-03-21T04:35:01.530Z,66.0
2023-03-21T04:40:01.702Z,65.6
2023-03-21T04:45:01.860Z,53.0
2023-03-21T04:50:01.486Z,51.8
2023-03-21T04:55:01.594Z,49.5
2023-03-21T05:05:01.543Z,41.8
2023-03-21T05:10:02.912Z,54.3
2023-03-21T05:20:02.548Z,57.8
2023-03-21T05:25:02.039Z,61.3
2023-03-21T05:35:02.578Z,51.8
2023-03-21T05:40:01.386Z,50.4
2023-03-21T05:50:01.657Z,47.6
2023-03-21T06:00:01.687Z,61.1
2023-03-21T06:20:01.034Z,66.2
2023-03-21T06:25:06.061Z,68.0
2023-03-21T06:30:05.945Z,67.7
2023-03-21T06:35:00.993Z,67.2
2023-03-21T06:40:01.281Z,66.9
2023-03-21T06:45:01.315Z,67.6
2023-03-21T06:50:00.926Z,67.0
2023-03-21T06:55:01.056Z,66.8
2023-03-21T07:00:00.960Z,67.9
2023-03-21T07:05:00.991Z,68.3
2023-03-21T07:10:00.932Z,68.9
2023-03-21T07:15:01.011Z,71.0
2023-03-21T07:20:00.960Z,74.9
2023-03-21T07:25:05.765Z,81.9
2023-03-21T07:30:00.936Z,90.6
2023-03-21T07:35:02.222Z,97.9
2023-03-21T07:40:00.956Z,105.5
2023-03-21T07:50:01.246Z,114.5
2023-03-21T07:55:00.993Z,114.2
2023-03-21T08:00:00.974Z,115.2
2023-03-21T08:05:02.104Z,109.8
2023-03-21T08:10:01.276Z,98.6
2023-03-21T08:15:01.647Z,87.6
2023-03-21T08:20:00.990Z,78.8
2023-03-21T08:25:01.082Z,69.0
2023-03-21T08:30:01.004Z,64.3
2023-03-21T08:35:01.084Z,66.8
2023-03-21T08:40:06.389Z,67.5
2023-03-21T08:45:01.073Z,67.3
2023-03-21T08:50:00.948Z,68.4
2023-03-21T08:55:01.000Z,69.3
2023-03-21T09:00:02.052Z,68.3
2023-03-21T09:05:01.201Z,67.8
2023-03-21T09:15:00.991Z,70.6
2023-03-21T09:20:01.058Z,69.9
2023-03-21T09:25:01.136Z,69.0
2023-03-21T09:30:01.965Z,69.0
2023-03-21T09:40:02.054Z,65.2
2023-03-21T09:50:15.344Z,64.8
2023-03-21T09:55:06.070Z,64.7
2023-03-21T10:05:01.034Z,65.3
2023-03-21T10:10:06.994Z,65.4
2023-03-21T10:15:01.140Z,64.8
2023-03-21T10:25:06.084Z,63.9
2023-03-21T10:30:00.964Z,63.0
2023-03-21T10:35:01.075Z,63.5
2023-03-21T10:40:01.130Z,64.6
2023-03-21T10:45:06.101Z,65.2
2023-03-21T10:50:11.853Z,69.6
2023-03-21T10:55:02.035Z,70.0
2023-03-21T11:00:06.078Z,69.8
2023-03-21T11:05:01.066Z,68.3
2023-03-21T11:15:06.019Z,62.5
2023-03-21T11:30:06.544Z,60.4
2023-03-21T11:35:01.635Z,60.8
2023-03-21T11:50:05.727Z,66.0
2023-03-21T11:55:01.825Z,62.6
2023-03-21T12:10:01.315Z,61.6
2023-03-21T12:15:01.157Z,61.9
2023-03-21T12:20:01.105Z,62.2
2023-03-21T12:25:01.533Z,62.2
2023-03-21T12:30:01.226Z,62.1
2023-03-21T12:35:01.332Z,62.2
2023-03-21T12:40:01.220Z,62.2
2023-03-21T13:00:01.960Z,63.4
2023-03-21T13:05:02.015Z,61.4
2023-03-21T13:20:01.352Z,65.2
2023-03-21T13:40:01.696Z,63.8
2023-03-21T13:45:01.486Z,63.6
2023-03-21T13:50:01.378Z,65.8
2023-03-21T14:10:04.382Z,72.2
2023-03-21T14:15:16.662Z,79.6
2023-03-21T14:20:01.750Z,78.5
2023-03-21T14:35:01.872Z,81.7
2023-03-21T15:05:01.362Z,66.2
2023-03-21T15:10:01.282Z,66.3
2023-03-21T15:25:01.373Z,63.8
2023-03-21T15:30:01.421Z,63.3
2023-03-21T15:35:01.741Z,62.3
2023-03-21T15:40:01.553Z,62.4
2023-03-21T16:05:01.227Z,61.8
2023-03-21T16:20:02.623Z,65.2
2023-03-21T16:25:02.317Z,64.2
2023-03-21T16:30:01.293Z,65.1
2023-03-21T16:35:01.674Z,64.8
2023-03-21T16:50:01.550Z,65.2
2023-03-21T16:55:01.430Z,68.0
2023-03-21T17:05:04.957Z,67.6
2023-03-21T17:10:01.339Z,67.4
2023-03-21T17:15:05.768Z,68.1
2023-03-21T17:20:01.326Z,66.9
2023-03-21T17:40:01.308Z,81.6
2023-03-21T17:45:01.192Z,74.5
2023-03-21T17:50:01.146Z,71.7
2023-03-21T17:55:01.262Z,70.5
2023-03-21T18:00:01.508Z,70.6
2023-03-21T18:05:01.318Z,69.9
2023-03-21T18:10:01.437Z,71.6
2023-03-21T18:15:02.233Z,73.6
2023-03-21T18:20:01.256Z,75.2
2023-03-21T18:25:01.567Z,75.2
2023-03-21T18:50:15.467Z,93.8
2023-03-21T18:55:06.941Z,81.6
2023-03-21T19:00:06.811Z,79.9
2023-03-21T19:05:02.057Z,77.3
2023-03-21T19:15:02.193Z,71.0
2023-03-21T19:20:01.793Z,71.7
2023-03-21T19:25:07.388Z,71.2
2023-03-21T19:30:15.536Z,72.9
2023-03-21T19:35:02.230Z,74.9
2023-03-21T19:40:03.114Z,78.3
2023-03-21T19:45:07.242Z,78.1
2023-03-21T20:10:01.783Z,72.0
2023-03-21T20:30:10.762Z,73.4
2023-03-21T20:40:07.090Z,69.9
2023-03-21T20:45:01.486Z,70.7
2023-03-21T20:50:01.389Z,71.6
2023-03-21T20:55:02.154Z,70.0
2023-03-21T21:00:01.025Z,71.1
2023-03-21T21:10:01.593Z,72.4
2023-03-21T21:15:02.139Z,70.6
2023-03-21T21:20:01.326Z,72.4
2023-03-21T21:25:01.088Z,74.6
2023-03-21T21:30:06.038Z,76.0
2023-03-21T21:35:01.053Z,74.8
2023-03-21T21:40:01.405Z,75.5
2023-03-21T21:45:01.167Z,74.5
2023-03-21T21:50:06.441Z,72.4
2023-03-21T21:55:01.350Z,70.6
2023-03-21T22:00:01.297Z,70.6
2023-03-21T22:05:00.986Z,70.4
2023-03-21T22:10:06.338Z,71.1
2023-03-21T22:15:01.110Z,71.4
2023-03-21T22:20:07.175Z,71.3
2023-03-21T22:25:01.174Z,71.6
2023-03-21T22:30:01.069Z,71.8
2023-03-21T22:35:06.383Z,72.6
2023-03-21T22:40:00.995Z,72.3
2023-03-21T22:45:02.542Z,72.1
2023-03-21T22:50:01.042Z,71.4
2023-03-21T22:55:01.123Z,70.9
2023-03-21T23:00:02.448Z,69.1
2023-03-21T23:05:01.131Z,68.8
2023-03-21T23:10:01.340Z,69.4
2023-03-21T23:30:01.933Z,78.6
2023-03-21T23:35:01.605Z,81.4
2023-03-21T23:40:01.548Z,78.9
2023-03-21T23:45:01.660Z,76.4
2023-03-21T23:50:01.561Z,75.4
2023-03-21T23:55:06.678Z,73.3
